Latest Weather Observations for Argyle

IDD60801

Issued at 11:31 pm CST Sunday 4 December 2016 (issued every 30 minutes, with the page automatically refreshed every 10 minutes)

About weather observations | Map of weather stations | Latest weather observations for NT | Other Formats
Station Details ID: 002064 Name: ARGYLE AERODROME Lat: -16.64 Lon: 128.45 Height: 164.0 m
Data from the previous 72 hours. | See also: Recent months at Argyle
Date/Time
CST
Temp
°C
App
Temp
°C
Dew
Point
°C
Rel
Hum
%
Delta-T
°C
Wind Press
QNH
hPa
Press
MSL
hPa
Rain since
9am
mm
Dir  Spd
km/h
Gust
km/h
Spd
kts
Gust
kts
04/11:00pm 31.4 32.9 20.5 52 7.3 NNW 13 17 7 9 1010.1 - 0.0
04/10:30pm 31.7 33.1 21.0 53 7.2 N 15 19 8 10 1010.0 1008.6 0.0
04/10:00pm 31.8 33.5 21.7 55 6.9 N 15 20 8 11 1010.0 - 0.0
04/09:30pm 32.1 33.2 21.3 53 7.3 N 17 24 9 13 1009.9 - 0.0
04/09:00pm 32.2 34.2 21.5 53 7.3 N 13 20 7 11 1009.5 - 0.0
04/08:30pm 32.2 33.7 22.0 55 7.0 N 17 20 9 11 1009.2 - 0.0
04/08:00pm 31.8 33.8 21.5 54 7.0 N 13 17 7 9 1008.6 - 0.0
04/07:30pm 32.2 34.2 21.5 53 7.3 N 13 17 7 9 1008.2 1006.8 0.0
04/07:00pm 32.8 33.8 21.1 50 7.9 N 17 20 9 11 1007.8 - 0.0
04/06:30pm 33.5 34.9 22.5 52 7.6 N 19 22 10 12 1007.7 - 0.0
04/06:00pm 33.2 33.7 22.6 53 7.3 N 24 32 13 17 1007.5 - 0.0
04/05:30pm 34.0 33.4 23.4 54 7.4 N 32 43 17 23 1007.3 - 0.0
04/05:26pm 34.3 32.3 23.3 52 7.7 N 39 46 21 25 1007.2 - 0.0
04/05:00pm 36.0 38.0 20.7 41 10.4 N 11 19 6 10 1007.1 - 0.0
04/04:30pm 36.1 35.9 20.6 40 10.5 N 22 - 12 - - 1005.8 0.0
04/04:00pm 35.9 36.7 21.8 44 9.7 N 20 30 11 16 1007.5 - 0.0
04/03:30pm 34.7 34.2 22.9 50 8.2 N 30 39 16 21 1007.8 - 0.0
04/03:23pm 34.8 35.0 23.4 51 8.0 N 28 46 15 25 1007.7 - 0.0
04/03:00pm 36.3 37.2 22.0 43 9.9 N 20 32 11 17 1007.7 - 0.0
04/02:30pm 36.6 38.2 20.7 39 10.8 N 13 19 7 10 1008.2 - 0.0
04/02:00pm 35.4 36.2 22.4 47 9.0 N 22 30 12 16 1008.7 - 0.0
04/01:30pm 35.2 37.9 21.3 44 9.5 N 9 13 5 7 1009.3 - 0.0
04/12:30pm 35.1 37.7 22.0 46 9.0 NNW 11 20 6 11 1010.2 - 0.0
04/12:00pm 34.4 35.9 20.5 44 9.4 N 13 20 7 11 1010.7 - 0.0
04/11:30am 34.1 36.6 21.7 48 8.5 N 11 19 6 10 1011.0 - 0.0
04/11:00am 33.1 36.6 22.8 54 7.1 NE 9 13 5 7 1011.4 - 0.0
04/10:30am 32.4 35.6 22.4 55 6.9 WSW 9 13 5 7 1011.6 1010.3 0.6
04/10:00am 32.0 35.9 22.9 58 6.3 WSW 7 15 4 8 1011.6 - 0.6
04/09:30am 31.0 35.0 23.7 65 5.1 WSW 9 15 5 8 1011.7 - 0.6
04/09:00am 29.8 34.4 24.1 71 4.0 W 7 11 4 6 1011.8 - 0.6
04/08:30am 28.7 33.3 24.1 76 3.2 W 7 11 4 6 1011.8 - 0.6
04/08:00am 27.5 33.2 23.7 80 2.6 CALM 0 4 0 2 1011.8 - 0.6
04/07:30am 26.6 30.8 23.4 82 2.2 E 7 11 4 6 1011.8 1010.5 0.6
04/07:00am 25.9 30.2 23.7 88 1.5 SE 7 9 4 5 1011.5 - 0.6
04/06:30am 25.8 29.9 23.3 86 1.7 SE 7 9 4 5 1011.0 - 0.6
04/06:00am 25.8 30.3 23.6 88 1.5 SE 6 7 3 4 1010.7 - 0.6
04/05:30am 26.0 31.0 23.8 88 1.5 ESE 4 7 2 4 1010.4 - 0.6
04/05:00am 26.2 31.8 23.6 85 1.8 CALM 0 0 0 0 1010.3 - 0.6
04/04:30am 26.1 30.8 23.3 84 1.9 SSE 4 7 2 4 1010.1 1008.7 0.6
04/04:00am 26.0 30.2 23.5 86 1.7 E 7 9 4 5 1010.1 - 0.6
04/03:00am 26.4 30.8 23.8 85 1.8 SSE 7 9 4 5 1009.9 - 0.6
04/02:30am 26.9 32.0 24.6 87 1.6 S 6 9 3 5 1010.1 - 0.6
04/02:00am 27.4 33.5 24.4 84 2.1 CALM 0 0 0 0 1010.1 - 0.6
04/01:30am 27.6 32.5 24.3 82 2.3 NW 6 9 3 5 1010.5 1009.1 0.6
04/01:00am 27.8 32.1 24.2 81 2.5 NE 9 15 5 8 1010.7 - 0.6
04/12:30am 28.1 31.5 24.1 79 2.8 NE 13 20 7 11 1011.0 - 0.6
04/12:00am 28.9 31.5 24.0 75 3.4 NE 17 26 9 14 1011.2 - 0.6
 
Date/Time
CST
Temp
°C
App
Temp
°C
Dew
Point
°C
Rel
Hum
%
Delta-T
°C
Wind Press
QNH
hPa
Press
MSL
hPa
Rain since
9am
mm
Dir  Spd
km/h
Gust
km/h
Spd
kts
Gust
kts
03/11:30pm 29.4 32.5 23.6 71 4.0 NNE 13 17 7 9 1011.5 - 0.6
03/11:00pm 29.4 32.5 23.6 71 4.0 NE 13 17 7 9 1011.5 - 0.6
03/10:30pm 29.8 31.6 23.3 68 4.5 NE 19 26 10 14 1011.5 1010.2 0.6
03/10:00pm 30.7 32.8 22.5 61 5.6 NE 15 19 8 10 1011.2 - 0.6
03/09:30pm 30.8 33.8 23.3 64 5.2 NE 13 19 7 10 1011.0 - 0.6
03/09:00pm 31.0 33.6 22.7 61 5.7 NNE 13 15 7 8 1010.6 - 0.6
03/08:30pm 31.5 34.0 22.5 59 6.2 NNE 13 19 7 10 1010.4 - 0.6
03/08:00pm 31.4 34.6 22.4 59 6.2 NE 9 13 5 7 1010.3 - 0.6
03/07:30pm 31.3 35.3 23.1 61 5.7 NE 7 9 4 5 1009.7 1008.3 0.6
03/07:00pm 31.9 35.2 22.6 58 6.4 NE 9 13 5 7 1009.3 - 0.6
03/06:30pm 32.5 35.7 23.0 57 6.6 NE 11 15 6 8 1008.9 - 0.6
03/06:00pm 33.5 36.1 22.0 51 7.9 ENE 11 17 6 9 1008.6 - 0.6
03/05:30pm 33.5 36.3 21.5 49 8.2 ENE 9 13 5 7 1008.2 - 0.6
03/05:00pm 33.4 36.3 21.0 48 8.4 ENE 7 13 4 7 1008.1 - 0.6
03/04:30pm 33.3 35.8 21.1 48 8.3 N 9 15 5 8 1008.2 1006.8 0.6
03/04:00pm 33.2 36.3 22.1 52 7.6 N 9 13 5 7 1008.3 - 0.6
03/03:00pm 31.2 34.2 22.0 58 6.3 SSW 9 17 5 9 1009.6 - 0.6
03/02:30pm 30.8 34.6 22.7 62 5.6 SW 7 13 4 7 1010.2 - 0.6
03/02:00pm 30.1 33.5 22.7 64 5.1 S 9 15 5 8 1010.6 - 0.6
03/01:30pm 29.4 32.9 22.8 67 4.5 SE 9 13 5 7 1010.9 1009.5 0.6
03/01:00pm 29.3 32.4 22.9 68 4.4 ESE 11 15 6 8 1011.6 - 0.6
03/12:30pm 29.5 33.7 22.5 66 4.8 NW 4 11 2 6 1011.8 - 0.6
03/12:00pm 27.6 30.7 22.1 72 3.7 N 9 13 5 7 1011.8 - 0.4
03/11:30am 26.5 30.0 22.2 77 2.9 W 7 11 4 6 1012.2 - 0.4
03/10:30am 22.1 23.7 21.5 96 0.4 W 15 19 8 10 1013.3 1011.9 26.0
03/10:02am 21.5 20.8 21.0 97 0.3 NW 26 32 14 17 1013.4 - 25.4
03/09:59am 21.5 20.9 21.2 98 0.2 NW 26 32 14 17 - - -
03/09:30am 21.3 21.7 21.0 98 0.2 NE 20 28 11 15 1015.0 - 18.8
03/09:20am 21.0 19.6 20.4 96 0.4 NNE 28 37 15 20 1015.1 - 11.6
03/09:18am 21.1 20.1 20.5 96 0.4 NNE 26 37 14 20 1015.1 - 10.4
03/08:55am 23.0 20.3 21.3 90 1.1 ENE 37 61 20 33 1013.7 - 2.4
03/08:49am 25.6 23.7 21.4 77 2.8 NE 33 61 18 33 1013.2 - 0.0
03/08:33am 28.2 27.6 23.3 75 3.4 ENE 32 41 17 22 1012.5 - 0.0
03/08:30am 30.7 33.8 22.9 63 5.4 NE 11 17 6 9 1012.2 - 0.0
03/08:00am 29.5 32.8 22.5 66 4.8 E 9 11 5 6 1011.4 - 0.0
03/07:30am 28.6 32.1 22.1 68 4.4 E 7 9 4 5 1011.1 1009.7 0.0
03/07:00am 28.2 31.7 21.8 68 4.3 SSE 6 7 3 4 1010.3 - 0.0
03/06:30am 28.0 31.6 22.1 70 4.0 S 6 9 3 5 1009.4 - 0.0
03/06:00am 28.5 32.0 21.9 67 4.5 WNW 6 7 3 4 1009.0 - 0.0
03/05:30am 28.3 31.8 22.1 69 4.2 W 7 11 4 6 1008.9 - 0.0
03/05:00am 28.9 31.2 22.0 66 4.7 W 13 17 7 9 1008.8 - 0.0
03/04:00am 29.4 32.5 22.2 65 4.9 WSW 9 13 5 7 1009.0 - 0.0
03/03:00am 29.6 33.5 22.6 66 4.8 S 6 11 3 6 1009.1 - 0.0
03/02:30am 29.9 33.1 22.4 64 5.1 SSW 9 13 5 7 1009.2 - 0.0
03/02:00am 30.2 33.4 23.1 65 4.9 S 11 17 6 9 1009.2 - 0.0
03/01:30am 30.5 34.7 24.7 71 4.1 NW 11 13 6 7 1009.2 1007.8 0.0
03/12:30am 30.8 34.8 24.4 68 4.5 N 11 15 6 8 1009.5 - 0.0
03/12:00am 30.8 34.6 24.7 70 4.3 NNE 13 17 7 9 1009.5 - 0.0
 
Date/Time
CST
Temp
°C
App
Temp
°C
Dew
Point
°C
Rel
Hum
%
Delta-T
°C
Wind Press
QNH
hPa
Press
MSL
hPa
Rain since
9am
mm
Dir  Spd
km/h
Gust
km/h
Spd
kts
Gust
kts
02/11:00pm 31.7 34.8 25.7 70 4.3 NNW 20 26 11 14 1009.0 - 0.0
02/10:30pm 32.1 34.1 25.8 69 4.5 NNW 26 35 14 19 1008.7 - 0.0
02/10:00pm 33.4 35.7 25.6 63 5.6 N 24 33 13 18 1008.4 - 0.0
02/09:30pm 34.2 37.2 24.6 57 6.8 N 17 26 9 14 1008.1 - 0.0
02/09:00pm 34.9 36.7 23.3 51 8.1 N 19 26 10 14 1007.9 - 0.0
02/08:30pm 35.7 36.8 22.3 46 9.3 NNE 20 28 11 15 1007.3 - 0.0
02/08:00pm 36.5 37.7 22.2 43 9.9 N 19 22 10 12 1006.8 - 0.0
02/07:30pm 36.8 37.7 21.5 41 10.5 NNE 19 26 10 14 1006.3 1004.9 0.0
02/07:00pm 36.8 39.4 22.6 44 9.9 NNE 13 19 7 10 1005.6 - 0.0
02/06:30pm 37.2 40.8 22.4 42 10.3 NE 7 13 4 7 1004.9 - -
02/06:00pm 37.9 41.0 23.5 43 10.2 NNE 13 19 7 10 1004.6 - 0.0
02/05:30pm 38.1 42.2 23.2 42 10.5 NNE 7 15 4 8 1004.9 - -
02/05:00pm 39.1 42.4 20.7 34 12.6 N 4 7 2 4 1005.0 - 0.0
02/04:30pm 38.7 41.3 20.5 34 12.4 SW 7 11 4 6 1005.3 - 0.0
02/04:00pm 39.0 41.6 20.4 34 12.7 SSW 7 13 4 7 1005.5 - 0.0
02/03:30pm 37.9 40.2 21.3 38 11.4 NNE 11 17 6 9 1006.1 - 0.0
02/03:00pm 38.7 41.2 22.4 39 11.4 ENE 13 19 7 10 1006.2 - 0.0
02/02:30pm 37.6 39.7 21.7 39 11.0 S 13 19 7 10 1006.9 - 0.0
02/02:00pm 38.5 40.8 22.1 39 11.4 W 13 20 7 11 1007.3 - 0.0
02/01:30pm 37.9 40.1 21.9 39 11.1 SSW 13 22 7 12 1007.9 1006.6 0.0
02/12:30pm 37.6 40.5 21.8 40 10.9 S 9 11 5 6 1009.0 - 0.0
02/12:00pm 36.1 39.3 22.4 45 9.5 SE 9 17 5 9 1009.5 - 0.0
02/11:30am 35.1 38.2 22.2 47 8.9 ENE 9 15 5 8 1009.9 - 0.0
02/11:00am 33.5 36.6 21.5 49 8.2 WNW 7 13 4 7 1010.5 - 0.0
02/10:30am 32.7 35.8 22.2 54 7.2 W 9 - 5 - - 1009.5 0.0
02/10:00am 31.7 35.7 22.0 56 6.6 SW 4 13 2 7 1010.9 - 0.0
02/09:30am 30.7 33.7 22.7 62 5.5 WSW 11 17 6 9 1011.1 - 0.0
02/09:00am 29.3 32.4 22.1 65 4.9 S 9 13 5 7 1011.2 - 0.0
02/08:30am 28.6 32.0 22.0 67 4.5 SSE 7 13 4 7 1010.9 - -
02/08:00am 27.9 31.9 22.0 70 4.0 NNW 4 7 2 4 1010.5 - 0.0
02/07:30am 27.4 30.4 21.9 72 3.7 NW 9 15 5 8 - 1008.9 -
02/06:30am 26.8 29.5 22.1 75 3.2 N 11 15 6 8 1010.0 - 0.0
02/04:00am 27.1 29.0 21.3 70 3.9 N 13 17 7 9 1008.3 - 0.0
02/03:30am 27.2 29.2 21.5 71 3.8 N 13 19 7 10 1008.5 - 0.0
02/01:30am 28.6 29.9 22.4 69 4.2 ENE 19 30 10 16 1009.4 1008.0 0.0

Other Formats:

Comma delimited format used in spreadsheet applications
http://www.bom.gov.au/fwo/IDD60801/IDD60801.94217.axf

JavaScript Object Notation format (JSON) in row-major order
http://www.bom.gov.au/fwo/IDD60801/IDD60801.94217.json